x

North Hecate Strait (46183) Wave Buoy

6:00pm - Wed 17th Dec 2014 All times are PST. -8 hours from GMT.

  • Sig Wave height 6.2ft
  • Peak Period 6s
  • Wind
    31mph, 36mph gusts
  • Sea Temp 49°f
  • Air Temp 46°f
  • Sea Pressure 1005.6mb
  • North Hecate Strait
  • North Hecate Strait

More Historic Weather Station data

Upgrade to MSW Pro to gain access to the past 30 days of data for over 8000 Wavebouys and Weather Stations around the globe.

Join Pro

Comparision Forecast

View Surf forecast
   
Wed 12/17 6:00pm 6ft 6s 31 36 mph 1005.6mb 49f 46f
5:00pm  -   -  29
mph
1006.1mb - 45f
4:00pm 6ft 5s 27 31 mph 1006.5mb 49f 45f
3:00pm 5ft 6s 27 31 mph 1007mb 49f 44f
2:00pm 5ft 6s 27 34 mph 1007mb 49f 44f
1:00pm 5ft 5s 25 29 mph 1007.5mb 49f 45f
12:00pm 4.5ft 5s 22 27 mph 1007.7mb 49f 45f
11:00am 4ft 5s 22 27 mph 1007.8mb 49f 44f
10:00am 4ft 5s 22 27 mph 1007.9mb 49f 44f
9:00am 4ft 4s 22 27 mph 1007.3mb 49f 44f
8:00am 4ft 4s 22 27 mph 1007mb 49f 45f
7:00am 3ft 9s 20 25 mph 1007.3mb 49f 45f
6:00am 3.5ft 9s 18 20 mph 1007.6mb 49f 45f
5:00am 3.5ft 8s 18 22 mph 1007.3mb 49f 45f
4:00am 3.5ft 10s 9 16 mph 1007.3mb 49f 45f
3:00am 3.5ft 8s 16 20 mph 1006.9mb 49f 46f
2:00am 3.5ft 8s 11 16 mph 1006.5mb 49f 45f
1:00am 3.5ft 10s 11 13 mph 1006.3mb 49f 46f
12:00am 4ft 9s 11 16 mph 1006.1mb 49f 46f
Tue 12/16 11:00pm 4.5ft 8s 11 16 mph 1006.2mb 49f 44f
10:00pm 5ft 8s 13 18 mph 1005.9mb 49f 46f
9:00pm 4.5ft 8s 16 18 mph 1005.6mb 49f 45f
8:00pm 5ft 9s 16 18 mph 1005.5mb 49f 45f
7:00pm 5ft 10s 13 16 mph 1005.4mb 49f 44f
6:00pm 4.5ft 9s 13 18 mph 1005.3mb 49f 45f
5:00pm 4.5ft 8s 7 11 mph 1005.4mb 49f 46f
4:00pm 5ft 8s 9 13 mph 1005.4mb 49f 46f
3:00pm 4.5ft 8s 9 11 mph 1005mb 49f 45f
2:00pm 4.5ft 9s 9 11 mph 1004.6mb 49f 45f
1:00pm 4.5ft 8s 2 4 mph 1004mb 49f 44f
12:00pm 5ft 9s 9 13 mph 1004.2mb 49f 44f
11:00am 6ft 9s 13 18 mph 1003.9mb 49f 43f
10:00am 6.5ft 9s 2 4 mph 1003.5mb 49f 45f
9:00am 8ft 10s  -  4 mph 1003.1mb 49f 45f
8:00am 8ft 10s 4 7 mph 1003mb 49f 45f
7:00am 8.5ft 10s 2 4 mph 1002.8mb 49f 44f
6:00am 10ft 11s 18 25 mph 1002.1mb 49f 45f
5:00am 10.5ft 10s 29 36 mph 1001.4mb 49f 45f
4:00am 11.5ft 7s 31 38 mph 1001.6mb 49f 45f
3:00am 10ft 8s 31 40 mph 1001.8mb 49f 46f
2:00am 10.5ft 10s 29 36 mph 1002.2mb 49f 45f
1:00am 11ft 11s 29 36 mph 1002.4mb 49f 45f
12:00am 11ft 8s 29 36 mph 1002.3mb 49f 46f
Mon 12/15 10:00pm 13.5ft 8s 34 43 mph 1002mb 49f 47f
9:00pm  -   -  34
mph
- - -
8:00pm 15.5ft 10s 34 43 mph 1001.6mb 49f 45f
6:00pm 16ft 12s 34 40 mph 1001.8mb 49f 44f
5:00pm 17ft 12s 36 45 mph 1002mb 50f 47f
4:00pm  -   -  38
mph
1001.5mb - 47f
3:00pm 15.5ft 9s 43 54 mph 1000.9mb 50f 47f
2:00pm 17.5ft 9s 38 49 mph 1001.2mb 50f 47f
1:00pm 15.5ft 8s 40 51 mph 1001mb 50f 49f
12:00pm 14ft 8s 40 51 mph 1000.7mb 50f 50f
11:00am 12.5ft 8s 38 47 mph 1000.8mb 50f 50f
10:00am 10ft 12s 31 40 mph 1001.4mb 50f 51f
9:00am 10ft 12s 29 34 mph 1001.5mb 50f 51f
8:00am 10ft 8s 29 36 mph 1002mb 50f 50f
7:00am 10ft 12s 29 40 mph 1002.6mb 50f 51f
6:00am 10ft 12s 27 34 mph 1003.4mb 50f 50f
5:00am 10ft 12s 27 34 mph 1003.8mb 50f 50f
4:00am 10ft 12s 27 34 mph 1004.6mb 50f 51f
3:00am 10ft 10s 27 31 mph 1005.5mb 50f 51f
2:00am 9.5ft 11s 27 34 mph 1006.1mb 50f 51f
1:00am 10ft 11s 25 31 mph 1006.7mb 50f 51f
12:00am 9ft 12s 27 34 mph 1007.3mb 50f 51f
Sun 12/14 10:00pm 9ft 12s 27 34 mph 1008.1mb 50f 51f
9:00pm 9ft 12s 29 38 mph 1008.1mb 50f 51f
8:00pm 9ft 7s 27 31 mph 1008.4mb 50f 51f
7:00pm 9.5ft 10s 27 31 mph 1008.5mb 50f 51f
6:00pm 10ft 8s 25 31 mph 1009mb 50f 51f
5:00pm 11ft 11s 29 38 mph 1009.4mb 50f 51f
4:00pm 11ft 9s 31 38 mph 1009.9mb 50f 51f
3:00pm 11ft 10s 31 43 mph 1010.1mb 50f 51f
2:00pm 10.5ft 8s 34 40 mph 1010.5mb 50f 50f
1:00pm 11.5ft 11s 31 40 mph 1011.4mb 50f 50f
12:00pm 11ft 10s 29 38 mph 1012.2mb 50f 50f
10:00am 10.5ft 10s 31 38 mph 1012.8mb 50f 50f
9:00am 11ft 8s 31 38 mph 1012.3mb 50f 50f
8:00am 10.5ft 9s 31 38 mph 1012.4mb 50f 50f
7:00am 11ft 8s 29 36 mph 1012.6mb 50f 50f
6:00am 11ft 8s 31 38 mph 1012.8mb 50f 50f
5:00am 11ft 8s 31 40 mph 1013.2mb 50f 50f
4:00am 11ft 9s 31 38 mph 1013.9mb 50f 50f